createdAt,value
2018-07-28T00:01:47.515Z,8.70
2018-07-28T00:04:16.220Z,9.83
2018-07-28T00:06:44.694Z,9.70
2018-07-28T00:09:13.251Z,6.97
2018-07-28T00:11:42.157Z,8.53
2018-07-28T00:14:10.720Z,7.93
2018-07-28T00:16:39.135Z,8.33
2018-07-28T00:19:07.610Z,11.13
2018-07-28T00:21:36.115Z,7.03
2018-07-28T00:24:04.543Z,6.90
2018-07-28T00:26:33.266Z,21.97
2018-07-28T00:29:01.831Z,6.83
2018-07-28T00:31:30.369Z,7.97
2018-07-28T00:33:59.013Z,7.07
2018-07-28T00:36:27.499Z,7.17
2018-07-28T00:38:55.952Z,6.80
2018-07-28T00:41:24.619Z,8.40
2018-07-28T00:43:53.107Z,7.17
2018-07-28T00:46:21.641Z,9.20
2018-07-28T00:48:50.095Z,7.07
2018-07-28T00:51:18.543Z,8.07
2018-07-28T00:53:47.124Z,7.40
2018-07-28T00:56:15.771Z,8.27
2018-07-28T00:58:44.179Z,16.03
2018-07-28T01:01:12.614Z,7.73
2018-07-28T01:03:41.206Z,7.40
2018-07-28T01:06:09.690Z,8.67
2018-07-28T01:08:38.178Z,14.70
2018-07-28T01:11:07.088Z,9.10
2018-07-28T01:13:35.530Z,8.47
2018-07-28T01:16:04.387Z,7.27
2018-07-28T01:18:33.039Z,10.03
2018-07-28T01:21:01.545Z,6.80
2018-07-28T01:23:30.042Z,6.97
2018-07-28T01:25:58.612Z,8.60
2018-07-28T01:28:27.027Z,6.43
2018-07-28T01:30:55.594Z,7.60
2018-07-28T01:33:24.218Z,7.80
2018-07-28T01:35:52.852Z,8.27
2018-07-28T01:38:21.307Z,8.20
2018-07-28T01:40:49.849Z,12.23
2018-07-28T01:43:18.303Z,8.17
2018-07-28T01:45:46.919Z,8.67
2018-07-28T01:48:15.579Z,8.43
2018-07-28T01:50:44.025Z,7.47
2018-07-28T01:53:12.491Z,7.53
2018-07-28T01:55:41.027Z,7.97
2018-07-28T01:58:09.411Z,7.73
2018-07-28T02:00:37.997Z,8.00
2018-07-28T02:03:06.479Z,8.67
2018-07-28T02:05:35.015Z,8.00
2018-07-28T02:08:03.579Z,8.23
2018-07-28T02:10:32.231Z,8.90
2018-07-28T02:13:00.679Z,8.13
2018-07-28T02:15:29.091Z,8.80
2018-07-28T02:17:57.815Z,8.97
2018-07-28T02:20:26.258Z,8.03
2018-07-28T02:22:54.655Z,8.63
2018-07-28T02:25:23.287Z,9.13
2018-07-28T02:27:51.823Z,8.13
2018-07-28T02:30:20.265Z,8.73
2018-07-28T02:32:48.828Z,8.00
2018-07-28T02:35:17.328Z,8.03
2018-07-28T02:37:45.791Z,9.43
2018-07-28T02:40:14.224Z,10.60
2018-07-28T02:42:42.673Z,7.90
2018-07-28T02:45:11.171Z,7.77
2018-07-28T02:47:39.903Z,7.77
2018-07-28T02:50:08.607Z,8.20
2018-07-28T02:52:37.411Z,13.67
2018-07-28T02:55:07.071Z,8.00
2018-07-28T02:57:35.848Z,7.67
2018-07-28T03:00:05.182Z,8.57
2018-07-28T03:02:33.695Z,8.43
2018-07-28T03:05:02.124Z,10.90
2018-07-28T03:07:30.839Z,11.63
2018-07-28T03:09:59.415Z,8.33
2018-07-28T03:12:27.893Z,7.73
2018-07-28T03:14:56.301Z,13.13
2018-07-28T03:17:24.831Z,8.83
2018-07-28T03:19:53.261Z,9.67
2018-07-28T03:22:21.867Z,9.47
2018-07-28T03:24:50.376Z,9.67
2018-07-28T03:27:18.830Z,8.87
2018-07-28T03:29:47.360Z,8.03
2018-07-28T03:32:15.859Z,12.93
2018-07-28T03:34:44.259Z,8.67
2018-07-28T03:37:12.718Z,7.93
2018-07-28T03:39:41.395Z,9.47
2018-07-28T03:42:09.951Z,9.63
2018-07-28T03:44:38.331Z,8.20
2018-07-28T03:47:07.595Z,17.87
2018-07-28T03:49:36.235Z,9.23
2018-07-28T03:52:04.719Z,8.33
2018-07-28T03:54:33.219Z,9.33
2018-07-28T03:57:01.679Z,8.70
2018-07-28T03:59:30.108Z,9.47
2018-07-28T04:01:58.618Z,8.33
2018-07-28T04:04:27.075Z,15.60
2018-07-28T04:06:55.584Z,16.10
2018-07-28T04:09:24.188Z,11.10
2018-07-28T04:11:52.628Z,9.07
2018-07-28T04:14:21.209Z,10.23
2018-07-28T04:16:50.082Z,12.70
2018-07-28T04:19:18.567Z,9.87
2018-07-28T04:21:47.006Z,9.67
2018-07-28T04:24:15.612Z,10.07
2018-07-28T04:26:44.031Z,11.03
2018-07-28T04:29:12.444Z,9.13
2018-07-28T04:31:40.984Z,8.30
2018-07-28T04:34:09.420Z,8.83
2018-07-28T04:36:37.943Z,9.13
2018-07-28T04:39:09.339Z,10.00
2018-07-28T04:41:37.923Z,8.33
2018-07-28T04:44:06.496Z,8.73
2018-07-28T04:46:35.451Z,8.60
2018-07-28T04:49:03.976Z,9.10
2018-07-28T04:51:32.471Z,9.30
2018-07-28T04:54:01.175Z,8.50
2018-07-28T04:56:29.667Z,8.87
2018-07-28T04:58:58.120Z,9.43
2018-07-28T05:01:26.811Z,8.50
2018-07-28T05:03:55.347Z,14.03
2018-07-28T05:06:24.167Z,11.17
2018-07-28T05:08:52.690Z,10.60
2018-07-28T05:11:21.119Z,13.10
2018-07-28T05:13:49.537Z,14.60
2018-07-28T05:16:18.175Z,15.63
2018-07-28T05:18:46.626Z,11.40
2018-07-28T05:21:15.079Z,8.07
2018-07-28T05:23:43.526Z,7.93
2018-07-28T05:26:12.109Z,9.07
2018-07-28T05:28:40.617Z,8.23
2018-07-28T05:31:09.251Z,11.93
2018-07-28T05:33:37.699Z,10.07
2018-07-28T05:36:06.156Z,11.10
2018-07-28T05:38:34.931Z,9.70
2018-07-28T05:41:03.499Z,11.23
2018-07-28T05:43:31.946Z,12.33
2018-07-28T05:46:00.511Z,9.53
2018-07-28T05:48:28.963Z,9.13
2018-07-28T05:50:57.371Z,8.97
2018-07-28T05:53:26.128Z,8.97
2018-07-28T05:55:54.623Z,8.23
2018-07-28T05:58:23.140Z,16.13
2018-07-28T06:00:51.991Z,9.90
2018-07-28T06:03:20.415Z,16.53
2018-07-28T06:05:48.808Z,10.73
2018-07-28T06:08:17.326Z,8.53
2018-07-28T06:10:45.803Z,8.60
2018-07-28T06:13:14.327Z,9.50
2018-07-28T06:15:43.067Z,10.17
2018-07-28T06:18:11.496Z,11.73
2018-07-28T06:20:40.001Z,12.07
2018-07-28T06:23:08.570Z,8.57
2018-07-28T06:25:37.093Z,8.77
2018-07-28T06:28:05.801Z,16.03
2018-07-28T06:30:34.547Z,8.60
2018-07-28T06:33:03.095Z,7.73
2018-07-28T06:35:31.471Z,8.17
2018-07-28T06:37:59.955Z,7.23
2018-07-28T06:40:28.575Z,9.80
2018-07-28T06:42:57.060Z,9.17
2018-07-28T06:45:25.583Z,7.63
2018-07-28T06:47:53.987Z,18.50
2018-07-28T06:50:22.499Z,23.40
2018-07-28T06:52:51.083Z,27.93
2018-07-28T06:55:19.612Z,19.13
2018-07-28T06:57:48.030Z,9.93
2018-07-28T07:00:16.557Z,12.47
2018-07-28T07:02:45.043Z,11.03
2018-07-28T07:05:13.519Z,10.10
2018-07-28T07:07:42.009Z,10.70
2018-07-28T07:10:10.463Z,10.00
2018-07-28T07:12:38.994Z,10.20
2018-07-28T07:15:08.253Z,10.60
2018-07-28T07:17:36.766Z,10.57
2018-07-28T07:20:05.983Z,8.93
2018-07-28T07:22:35.059Z,8.80
2018-07-28T07:25:03.608Z,9.10
2018-07-28T07:27:32.033Z,9.67
2018-07-28T07:30:00.647Z,8.70
2018-07-28T07:32:29.193Z,9.50
2018-07-28T07:34:57.686Z,10.07
2018-07-28T07:37:26.163Z,9.93
2018-07-28T07:39:54.682Z,8.40
2018-07-28T07:42:23.072Z,10.20
2018-07-28T07:44:51.580Z,9.70
2018-07-28T07:47:20.062Z,7.67
2018-07-28T07:49:48.464Z,8.40
2018-07-28T07:52:16.939Z,9.57
2018-07-28T07:54:45.348Z,8.80
2018-07-28T07:57:14.027Z,8.77
2018-07-28T07:59:42.912Z,8.67
2018-07-28T08:02:11.483Z,8.50
2018-07-28T08:04:39.899Z,11.50
2018-07-28T08:07:08.443Z,8.20
2018-07-28T08:09:36.845Z,8.20
2018-07-28T08:12:05.384Z,10.43
2018-07-28T08:14:33.935Z,7.87
2018-07-28T08:17:02.439Z,10.70
2018-07-28T08:19:31.276Z,7.87
2018-07-28T08:21:59.691Z,9.07
2018-07-28T08:24:28.131Z,14.10
2018-07-28T08:26:56.807Z,14.07
2018-07-28T08:29:25.579Z,9.60
2018-07-28T08:31:54.085Z,6.57
2018-07-28T08:34:22.590Z,7.53
2018-07-28T08:36:51.211Z,9.00
2018-07-28T08:39:19.632Z,17.50
2018-07-28T08:41:48.131Z,8.20
2018-07-28T08:44:16.663Z,7.57
2018-07-28T08:46:45.059Z,7.07
2018-07-28T08:49:13.535Z,8.60
2018-07-28T08:51:42.075Z,8.47
2018-07-28T08:54:10.495Z,7.93
2018-07-28T08:56:39.015Z,7.80
2018-07-28T08:59:08.471Z,16.43
2018-07-28T09:01:36.893Z,9.70
2018-07-28T09:04:05.415Z,9.10
2018-07-28T09:06:34.268Z,7.43
2018-07-28T09:09:02.727Z,7.93
2018-07-28T09:11:31.172Z,9.73
2018-07-28T09:13:59.604Z,9.07
2018-07-28T09:16:28.196Z,10.13
2018-07-28T09:18:56.595Z,9.53
2018-07-28T09:21:25.284Z,11.27
2018-07-28T09:23:53.995Z,7.13
2018-07-28T09:26:22.499Z,11.93
2018-07-28T09:28:51.114Z,8.07
2018-07-28T09:31:20.008Z,6.90
2018-07-28T09:33:48.431Z,13.10
2018-07-28T09:36:17.537Z,7.50
2018-07-28T09:38:46.297Z,7.47
2018-07-28T09:41:14.751Z,8.70
2018-07-28T09:43:43.474Z,8.10
2018-07-28T09:46:11.923Z,10.13
2018-07-28T09:48:40.460Z,10.07
2018-07-28T09:51:09.717Z,6.70
2018-07-28T09:53:38.192Z,8.93
2018-07-28T09:56:06.693Z,7.07
2018-07-28T09:58:35.399Z,6.87
2018-07-28T10:01:09.260Z,8.53
2018-07-28T10:03:37.923Z,7.20
2018-07-28T10:06:06.372Z,9.63
2018-07-28T10:08:34.880Z,18.90
2018-07-28T10:11:03.675Z,10.90
2018-07-28T10:13:32.175Z,11.00
2018-07-28T10:16:00.623Z,5.63
2018-07-28T10:18:29.131Z,9.30
2018-07-28T10:20:58.223Z,4.60
2018-07-28T10:23:26.772Z,11.37
2018-07-28T10:25:55.387Z,3.83
2018-07-28T10:28:23.827Z,5.93
2018-07-28T10:30:52.291Z,4.40
2018-07-28T10:33:20.831Z,5.23
2018-07-28T10:35:49.335Z,9.03
2018-07-28T10:38:17.736Z,4.00
2018-07-28T10:40:46.455Z,8.03
2018-07-28T10:43:14.899Z,7.90
2018-07-28T10:45:43.423Z,5.23
2018-07-28T10:48:12.040Z,5.27
2018-07-28T10:50:40.455Z,3.73
2018-07-28T10:53:08.966Z,4.33
2018-07-28T10:55:37.427Z,4.33
2018-07-28T10:58:05.985Z,4.67
2018-07-28T11:00:34.507Z,4.50
2018-07-28T11:03:03.209Z,6.73
2018-07-28T11:05:31.635Z,3.80
2018-07-28T11:08:00.131Z,3.20
2018-07-28T11:10:28.679Z,6.70
2018-07-28T11:12:57.383Z,5.13
2018-07-28T11:15:25.855Z,3.47
2018-07-28T11:17:54.326Z,4.93
2018-07-28T11:20:22.884Z,4.60
2018-07-28T11:22:51.307Z,4.20
2018-07-28T11:25:20.267Z,5.40
2018-07-28T11:27:48.801Z,4.07
2018-07-28T11:30:17.211Z,3.77
2018-07-28T11:32:56.891Z,5.47
2018-07-28T11:35:36.639Z,4.97
2018-07-28T11:38:25.757Z,4.57
2018-07-28T11:41:05.464Z,4.07
2018-07-28T11:43:45.410Z,4.80
2018-07-28T11:46:13.851Z,5.40
2018-07-28T11:48:42.315Z,4.03
2018-07-28T11:51:11.283Z,4.10
2018-07-28T11:53:40.279Z,4.80
2018-07-28T11:56:08.866Z,4.43
2018-07-28T11:58:37.431Z,3.97
2018-07-28T12:01:06.091Z,6.73
2018-07-28T12:03:35.125Z,6.90
2018-07-28T12:06:04.214Z,5.07
2018-07-28T12:08:32.963Z,5.10
2018-07-28T12:11:01.681Z,3.90
2018-07-28T12:13:30.329Z,4.27
2018-07-28T12:15:58.831Z,5.17
2018-07-28T12:18:27.569Z,4.43
2018-07-28T12:20:56.147Z,5.33
2018-07-28T12:23:24.613Z,5.70
2018-07-28T12:25:53.039Z,5.80
2018-07-28T12:28:21.647Z,5.00
2018-07-28T12:30:50.070Z,5.77
2018-07-28T12:33:18.660Z,4.80
2018-07-28T12:35:47.287Z,5.33
2018-07-28T12:38:15.699Z,6.70
2018-07-28T12:40:44.103Z,12.00
2018-07-28T12:43:12.673Z,5.37
2018-07-28T12:45:41.051Z,6.37
2018-07-28T12:48:09.581Z,5.67
2018-07-28T12:50:38.203Z,5.47
2018-07-28T12:53:06.649Z,8.57
2018-07-28T12:55:35.310Z,5.07
2018-07-28T12:58:03.979Z,5.07
2018-07-28T13:00:32.503Z,12.73
2018-07-28T13:03:00.907Z,5.30
2018-07-28T13:05:29.859Z,10.03
2018-07-28T13:07:58.279Z,4.53
2018-07-28T13:10:26.791Z,11.97
2018-07-28T13:12:55.243Z,11.90
2018-07-28T13:15:23.695Z,7.53
2018-07-28T13:17:52.357Z,7.70
2018-07-28T13:20:21.002Z,10.50
2018-07-28T13:22:49.467Z,8.27
2018-07-28T13:25:17.947Z,8.93
2018-07-28T13:27:46.405Z,8.80
2018-07-28T13:30:14.883Z,7.87
2018-07-28T13:32:43.336Z,7.83
2018-07-28T13:35:12.052Z,8.57
2018-07-28T13:37:40.545Z,8.90
2018-07-28T13:40:09.052Z,11.27
2018-07-28T13:42:37.705Z,9.83
2018-07-28T13:45:06.352Z,14.10
2018-07-28T13:47:35.065Z,12.10
2018-07-28T13:50:03.726Z,7.90
2018-07-28T13:52:32.207Z,14.00
2018-07-28T13:55:00.735Z,9.20
2018-07-28T13:57:29.235Z,21.20
2018-07-28T13:59:57.687Z,27.47
2018-07-28T14:02:26.183Z,12.83
2018-07-28T14:04:54.609Z,13.27
2018-07-28T14:07:23.215Z,10.63
2018-07-28T14:09:51.695Z,7.93
2018-07-28T14:12:20.297Z,7.77
2018-07-28T14:14:48.704Z,8.60
2018-07-28T14:17:17.180Z,7.60
2018-07-28T14:19:45.835Z,10.60
2018-07-28T14:22:14.351Z,8.43
2018-07-28T14:24:42.807Z,7.37
2018-07-28T14:27:11.256Z,8.60
2018-07-28T14:29:39.731Z,9.97
2018-07-28T14:32:08.207Z,11.77
2018-07-28T14:34:36.787Z,8.20
2018-07-28T14:37:05.359Z,8.10
2018-07-28T14:39:33.795Z,13.10
2018-07-28T14:42:02.459Z,7.80
2018-07-28T14:44:31.072Z,8.07
2018-07-28T14:46:59.503Z,8.47
2018-07-28T14:49:28.038Z,13.23
2018-07-28T14:51:56.467Z,7.73
2018-07-28T14:54:25.026Z,8.83
2018-07-28T14:56:53.663Z,7.87
2018-07-28T14:59:22.077Z,7.67
2018-07-28T15:01:50.567Z,10.60
2018-07-28T15:04:19.163Z,8.57
2018-07-28T15:06:47.667Z,7.10
2018-07-28T15:09:16.357Z,8.30
2018-07-28T15:11:45.129Z,9.40
2018-07-28T15:14:13.688Z,8.93
2018-07-28T15:16:42.072Z,6.97
2018-07-28T15:19:10.827Z,10.17
2018-07-28T15:21:39.278Z,8.03
2018-07-28T15:24:07.750Z,6.93
2018-07-28T15:26:36.452Z,7.00
2018-07-28T15:29:04.946Z,5.60
2018-07-28T15:31:33.448Z,5.10
2018-07-28T15:34:02.038Z,4.97
2018-07-28T15:36:30.463Z,4.90
2018-07-28T15:38:58.875Z,3.90
2018-07-28T15:41:27.459Z,5.03
2018-07-28T15:43:55.855Z,5.23
2018-07-28T15:46:24.287Z,4.27
2018-07-28T15:48:52.799Z,4.10
2018-07-28T15:51:21.250Z,5.00
2018-07-28T15:53:49.707Z,4.33
2018-07-28T15:56:18.171Z,4.67
2018-07-28T15:58:48.707Z,4.20
2018-07-28T16:01:17.243Z,5.03
2018-07-28T16:03:45.688Z,6.07
2018-07-28T16:06:14.155Z,4.73
2018-07-28T16:08:42.611Z,4.93
2018-07-28T16:11:11.227Z,4.80
2018-07-28T16:13:39.898Z,6.50
2018-07-28T16:16:08.378Z,4.47
2018-07-28T16:18:36.838Z,3.87
2018-07-28T16:21:05.280Z,5.73
2018-07-28T16:23:33.759Z,4.97
2018-07-28T16:26:02.233Z,4.67
2018-07-28T16:28:30.684Z,5.37
2018-07-28T16:30:59.392Z,4.37
2018-07-28T16:33:27.780Z,4.50
2018-07-28T16:35:56.179Z,4.17
2018-07-28T16:38:24.775Z,4.37
2018-07-28T16:40:53.527Z,3.80
2018-07-28T16:43:24.207Z,3.50
2018-07-28T16:45:53.715Z,3.90
2018-07-28T16:48:22.726Z,3.97
2018-07-28T16:50:51.824Z,3.87
2018-07-28T16:53:22.641Z,3.70
2018-07-28T16:55:51.443Z,4.10
2018-07-28T16:58:23.167Z,3.67
2018-07-28T17:00:54.014Z,3.70
2018-07-28T17:03:28.311Z,4.90
2018-07-28T17:05:58.024Z,3.07
2018-07-28T17:08:26.579Z,3.80
2018-07-28T17:10:55.127Z,3.17
2018-07-28T17:13:23.763Z,4.30
2018-07-28T17:15:52.755Z,3.83
2018-07-28T17:18:25.459Z,4.10
2018-07-28T17:20:54.312Z,3.53
2018-07-28T17:23:22.819Z,4.80
2018-07-28T17:25:51.715Z,4.27
2018-07-28T17:28:20.219Z,4.13
2018-07-28T17:30:48.711Z,4.23
2018-07-28T17:33:17.460Z,3.80
2018-07-28T17:35:46.015Z,3.23
2018-07-28T17:38:14.431Z,3.50
2018-07-28T17:40:44.670Z,10.40
2018-07-28T17:43:13.123Z,3.10
2018-07-28T17:45:41.583Z,4.27
2018-07-28T17:48:10.124Z,4.20
2018-07-28T17:50:38.610Z,2.50
2018-07-28T17:53:07.035Z,2.50
2018-07-28T17:55:35.943Z,3.40
2018-07-28T17:58:04.485Z,3.83
2018-07-28T18:00:32.939Z,2.80
2018-07-28T18:03:01.471Z,5.07
2018-07-28T18:05:29.930Z,2.17
2018-07-28T18:07:58.470Z,2.03
2018-07-28T18:10:26.924Z,2.37
2018-07-28T18:12:55.374Z,2.40
2018-07-28T18:15:24.038Z,4.10
2018-07-28T18:17:52.587Z,2.00
2018-07-28T18:20:21.228Z,2.73
2018-07-28T18:22:49.764Z,3.53
2018-07-28T18:25:18.411Z,1.60
2018-07-28T18:27:46.911Z,6.23
2018-07-28T18:30:15.667Z,3.97
2018-07-28T18:32:44.383Z,4.03
2018-07-28T18:35:12.828Z,3.20
2018-07-28T18:37:41.291Z,3.90
2018-07-28T18:40:09.972Z,17.97
2018-07-28T18:42:38.484Z,2.60
2018-07-28T18:45:07.120Z,4.60
2018-07-28T18:47:36.013Z,3.30
2018-07-28T18:50:04.784Z,4.53
2018-07-28T18:52:33.267Z,2.70
2018-07-28T18:55:01.963Z,3.47
2018-07-28T18:57:30.372Z,5.53
2018-07-28T18:59:58.906Z,2.17
2018-07-28T19:02:27.542Z,2.20
2018-07-28T19:04:55.964Z,2.80
2018-07-28T19:07:24.442Z,2.47
2018-07-28T19:09:53.542Z,2.00
2018-07-28T19:12:27.235Z,2.50
2018-07-28T19:14:55.844Z,2.30
2018-07-28T19:17:28.482Z,1.33
2018-07-28T19:19:57.234Z,1.53
2018-07-28T19:22:31.074Z,7.10
2018-07-28T19:24:59.480Z,1.43
2018-07-28T19:27:27.944Z,1.60
2018-07-28T19:29:56.559Z,1.40
2018-07-28T19:32:25.293Z,1.90
2018-07-28T19:34:53.743Z,8.47
2018-07-28T19:37:24.077Z,1.93
2018-07-28T19:39:52.646Z,2.70
2018-07-28T19:42:26.527Z,1.73
2018-07-28T19:44:55.245Z,1.27
2018-07-28T19:47:23.674Z,8.63
2018-07-28T19:49:52.215Z,2.23
2018-07-28T19:52:20.779Z,1.63
2018-07-28T19:54:49.199Z,1.97
2018-07-28T19:57:17.645Z,1.50
2018-07-28T19:59:46.112Z,2.60
2018-07-28T20:02:14.926Z,1.73
2018-07-28T20:04:43.417Z,2.37
2018-07-28T20:07:12.064Z,4.23
2018-07-28T20:09:40.544Z,1.57
2018-07-28T20:12:09.190Z,2.00
2018-07-28T20:14:37.836Z,2.97
2018-07-28T20:17:06.734Z,2.00
2018-07-28T20:19:35.502Z,3.47
2018-07-28T20:22:04.170Z,1.53
2018-07-28T20:24:32.612Z,2.17
2018-07-28T20:27:01.415Z,2.00
2018-07-28T20:29:29.891Z,4.40
2018-07-28T20:31:58.388Z,1.53
2018-07-28T20:34:26.945Z,2.00
2018-07-28T20:36:55.551Z,2.10
2018-07-28T20:39:23.017Z,10.03
2018-07-28T20:41:51.641Z,3.10
2018-07-28T20:44:20.252Z,2.10
2018-07-28T20:46:48.688Z,2.07
2018-07-28T20:49:17.215Z,2.27
2018-07-28T20:51:45.967Z,1.73
2018-07-28T20:54:14.371Z,2.50
2018-07-28T20:56:42.781Z,2.23
2018-07-28T20:59:11.318Z,2.90
2018-07-28T21:01:39.792Z,2.83
2018-07-28T21:04:08.280Z,2.47
2018-07-28T21:06:37.149Z,2.53
2018-07-28T21:09:07.886Z,4.70
2018-07-28T21:11:36.439Z,3.90
2018-07-28T21:14:05.065Z,3.10
2018-07-28T21:16:33.695Z,1.93
2018-07-28T21:19:02.123Z,2.10
2018-07-28T21:21:31.253Z,3.57
2018-07-28T21:23:59.695Z,2.30
2018-07-28T21:26:28.433Z,2.97
2018-07-28T21:28:56.945Z,4.57
2018-07-28T21:31:25.391Z,2.77
2018-07-28T21:33:54.294Z,4.33
2018-07-28T21:36:23.035Z,4.30
2018-07-28T21:38:51.487Z,2.70
2018-07-28T21:41:20.015Z,2.47
2018-07-28T21:43:48.546Z,2.70
2018-07-28T21:46:16.980Z,2.30
2018-07-28T21:48:45.835Z,2.23
2018-07-28T21:51:14.643Z,3.70
2018-07-28T21:53:43.163Z,3.10
2018-07-28T21:56:11.667Z,2.63
2018-07-28T21:58:40.142Z,2.63
2018-07-28T22:01:14.507Z,2.53
2018-07-28T22:03:43.195Z,2.20
2018-07-28T22:06:11.677Z,2.40
2018-07-28T22:08:40.592Z,2.53
2018-07-28T22:11:09.057Z,10.27
2018-07-28T22:13:37.471Z,2.20
2018-07-28T22:16:06.435Z,2.20
2018-07-28T22:18:34.847Z,3.10
2018-07-28T22:21:03.428Z,4.87
2018-07-28T22:23:32.522Z,2.53
2018-07-28T22:26:01.725Z,2.83
2018-07-28T22:28:30.432Z,2.87
2018-07-28T22:30:59.148Z,2.50
2018-07-28T22:33:27.701Z,2.43
2018-07-28T22:35:56.338Z,2.83
2018-07-28T22:38:25.032Z,2.50
2018-07-28T22:40:53.561Z,2.03
2018-07-28T22:43:22.159Z,2.57
2018-07-28T22:45:50.825Z,2.33
2018-07-28T22:48:19.340Z,2.43
2018-07-28T22:50:47.864Z,2.00
2018-07-28T22:53:17.231Z,2.80
2018-07-28T22:55:46.118Z,2.90
2018-07-28T22:58:14.553Z,2.60
2018-07-28T23:00:43.124Z,2.10
2018-07-28T23:03:11.712Z,3.30
2018-07-28T23:05:40.159Z,4.67
2018-07-28T23:08:09.127Z,2.87
2018-07-28T23:10:37.757Z,6.07
2018-07-28T23:13:06.226Z,5.80
2018-07-28T23:15:34.779Z,3.83
2018-07-28T23:18:03.359Z,2.83
2018-07-28T23:20:31.798Z,2.63
2018-07-28T23:23:00.723Z,3.10
2018-07-28T23:25:29.326Z,3.10
2018-07-28T23:27:58.155Z,2.57
2018-07-28T23:30:26.685Z,2.33
2018-07-28T23:32:55.115Z,3.13
2018-07-28T23:35:23.772Z,4.77
2018-07-28T23:37:52.371Z,2.53
2018-07-28T23:40:20.835Z,2.77
2018-07-28T23:42:50.220Z,2.90
2018-07-28T23:45:18.882Z,4.97
2018-07-28T23:47:47.428Z,3.20
2018-07-28T23:50:15.942Z,2.20
2018-07-28T23:52:44.526Z,3.10
2018-07-28T23:55:13.034Z,2.60
2018-07-28T23:57:41.507Z,2.90
